FDX774 MRLB-MSLP
Flight info
| Callsign | FDX774 |
|---|---|
| Flight time | 0h 49m |
| Altitude | 36000 |
| Route | PULIN DCT LISPA UA502 MGA UA317 GABOS DCT UMIPI UMIPI2M |
| Aircraft | B763/H-SDE3FGHIM3RWXY/LB1 |
Departure
| Time | 2026-05-05 00:15 |
|---|---|
| Airport | Daniel Oduber Quirós International Airport (MRLB) |
Arrival
| Time | 2026-05-05 01:04 |
|---|---|
| Airport | El Salvador International Airport Saint Óscar Arnulfo Romero y Galdámez (MSLP) |
| Time | Latitude | Longitude | Altitude | Speed | Heading |
|---|---|---|---|---|---|
| 2026-05-04 23:56 | 10.59872 | -85.53892 | 264 ft | 0 kts | 70° |
| 2026-05-05 00:08 | 10.59874 | -85.53886 | 263 ft | 3 kts | 73° |
| 2026-05-05 00:09 | 10.59865 | -85.53854 | 265 ft | 4 kts | 127° |
| 2026-05-05 00:09 | 10.59851 | -85.53835 | 266 ft | 4 kts | 127° |
| 2026-05-05 00:09 | 10.59825 | -85.53787 | 269 ft | 12 kts | 107° |
| 2026-05-05 00:09 | 10.59844 | -85.53676 | 272 ft | 17 kts | 70° |
| 2026-05-05 00:10 | 10.59887 | -85.53553 | 273 ft | 22 kts | 71° |
| 2026-05-05 00:10 | 10.59941 | -85.53404 | 277 ft | 16 kts | 73° |
| 2026-05-05 00:10 | 10.59909 | -85.53336 | 279 ft | 12 kts | 156° |
| 2026-05-05 00:10 | 10.59876 | -85.53323 | 280 ft | 0 kts | 160° |
| 2026-05-05 00:13 | 10.59874 | -85.53323 | 280 ft | 0 kts | 160° |
| 2026-05-05 00:14 | 10.59856 | -85.53316 | 280 ft | 5 kts | 160° |
| 2026-05-05 00:14 | 10.59782 | -85.53301 | 281 ft | 13 kts | 190° |
| 2026-05-05 00:14 | 10.59710 | -85.53411 | 280 ft | 34 kts | 251° |
| 2026-05-05 00:14 | 10.59527 | -85.53921 | 271 ft | 119 kts | 250° |
| 2026-05-05 00:15 | 10.59153 | -85.54966 | 319 ft | 189 kts | 247° |
| 2026-05-05 00:15 | 10.58622 | -85.56301 | 1005 ft | 213 kts | 239° |
| 2026-05-05 00:15 | 10.57814 | -85.57455 | 1985 ft | 203 kts | 224° |
| 2026-05-05 00:15 | 10.56624 | -85.58268 | 2231 ft | 213 kts | 191° |
| 2026-05-05 00:16 | 10.55132 | -85.58250 | 2497 ft | 221 kts | 155° |
| 2026-05-05 00:16 | 10.53844 | -85.57304 | 2696 ft | 238 kts | 121° |
| 2026-05-05 00:16 | 10.53283 | -85.55727 | 3152 ft | 246 kts | 90° |
| 2026-05-05 00:16 | 10.53647 | -85.54030 | 3696 ft | 255 kts | 59° |
| 2026-05-05 00:17 | 10.54839 | -85.52719 | 4448 ft | 259 kts | 39° |
| 2026-05-05 00:17 | 10.56264 | -85.51568 | 5207 ft | 263 kts | 39° |
| 2026-05-05 00:17 | 10.57711 | -85.50452 | 6038 ft | 263 kts | 39° |
| 2026-05-05 00:17 | 10.59181 | -85.49306 | 6777 ft | 268 kts | 39° |
| 2026-05-05 00:18 | 10.60644 | -85.48161 | 7501 ft | 271 kts | 39° |
| 2026-05-05 00:18 | 10.62268 | -85.47143 | 8172 ft | 280 kts | 20° |
| 2026-05-05 00:18 | 10.64219 | -85.46898 | 8899 ft | 288 kts | 1° |
| 2026-05-05 00:18 | 10.66236 | -85.46959 | 9616 ft | 292 kts | 2° |
| 2026-05-05 00:19 | 10.68276 | -85.47013 | 10322 ft | 296 kts | 1° |
| 2026-05-05 00:19 | 10.70383 | -85.47082 | 10726 ft | 313 kts | 0° |
| 2026-05-05 00:19 | 10.72645 | -85.47164 | 11081 ft | 332 kts | 360° |
| 2026-05-05 00:19 | 10.75015 | -85.47256 | 11444 ft | 349 kts | 359° |
| 2026-05-05 00:20 | 10.77512 | -85.47353 | 11787 ft | 367 kts | 359° |
| 2026-05-05 00:20 | 10.80109 | -85.47457 | 12104 ft | 384 kts | 359° |
| 2026-05-05 00:20 | 10.82872 | -85.47568 | 12559 ft | 396 kts | 359° |
| 2026-05-05 00:20 | 10.85603 | -85.47678 | 13263 ft | 399 kts | 358° |
| 2026-05-05 00:21 | 10.88402 | -85.47791 | 13939 ft | 403 kts | 358° |
| 2026-05-05 00:21 | 10.91250 | -85.47907 | 14552 ft | 407 kts | 358° |
| 2026-05-05 00:21 | 10.94098 | -85.48022 | 15187 ft | 411 kts | 359° |
| 2026-05-05 00:21 | 10.96935 | -85.48136 | 15783 ft | 415 kts | 359° |
| 2026-05-05 00:22 | 10.99837 | -85.48254 | 16373 ft | 418 kts | 359° |
| 2026-05-05 00:22 | 11.02754 | -85.48370 | 16924 ft | 422 kts | 359° |
| 2026-05-05 00:22 | 11.05738 | -85.48490 | 17472 ft | 426 kts | 359° |
| 2026-05-05 00:22 | 11.08717 | -85.48611 | 18055 ft | 429 kts | 359° |
| 2026-05-05 00:23 | 11.11698 | -85.48730 | 18624 ft | 431 kts | 358° |
| 2026-05-05 00:23 | 11.14699 | -85.48851 | 19142 ft | 434 kts | 358° |
| 2026-05-05 00:23 | 11.17748 | -85.48974 | 19674 ft | 437 kts | 358° |
| 2026-05-05 00:23 | 11.20785 | -85.49097 | 20202 ft | 438 kts | 358° |
| 2026-05-05 00:24 | 11.23876 | -85.49220 | 20650 ft | 442 kts | 358° |
| 2026-05-05 00:24 | 11.26955 | -85.49345 | 21143 ft | 443 kts | 358° |
| 2026-05-05 00:24 | 11.30037 | -85.49469 | 21536 ft | 447 kts | 357° |
| 2026-05-05 00:24 | 11.33136 | -85.49615 | 22010 ft | 447 kts | 355° |
| 2026-05-05 00:25 | 11.36223 | -85.50124 | 22377 ft | 451 kts | 345° |
| 2026-05-05 00:25 | 11.39224 | -85.51178 | 22725 ft | 454 kts | 335° |
| 2026-05-05 00:25 | 11.42005 | -85.52730 | 23113 ft | 457 kts | 326° |
| 2026-05-05 00:25 | 11.44504 | -85.54720 | 23448 ft | 460 kts | 318° |
| 2026-05-05 00:26 | 11.46904 | -85.56908 | 23796 ft | 463 kts | 319° |
| 2026-05-05 00:26 | 11.49338 | -85.59090 | 24158 ft | 465 kts | 319° |
| 2026-05-05 00:26 | 11.51749 | -85.61258 | 24503 ft | 468 kts | 319° |
| 2026-05-05 00:26 | 11.54218 | -85.63479 | 24854 ft | 470 kts | 319° |
| 2026-05-05 00:27 | 11.56659 | -85.65675 | 25215 ft | 471 kts | 319° |
| 2026-05-05 00:27 | 11.59117 | -85.67887 | 25529 ft | 474 kts | 319° |
| 2026-05-05 00:27 | 11.61617 | -85.70136 | 25775 ft | 477 kts | 319° |
| 2026-05-05 00:27 | 11.64087 | -85.72360 | 26098 ft | 479 kts | 319° |
| 2026-05-05 00:28 | 11.66592 | -85.74615 | 26391 ft | 481 kts | 319° |
| 2026-05-05 00:28 | 11.69103 | -85.76876 | 26642 ft | 483 kts | 319° |
| 2026-05-05 00:28 | 11.71630 | -85.79152 | 26887 ft | 486 kts | 319° |
| 2026-05-05 00:28 | 11.74189 | -85.81458 | 27281 ft | 485 kts | 319° |
| 2026-05-05 00:29 | 11.76704 | -85.83726 | 27669 ft | 484 kts | 318° |
| 2026-05-05 00:29 | 11.79216 | -85.85990 | 28044 ft | 483 kts | 318° |
| 2026-05-05 00:29 | 11.81762 | -85.88285 | 28420 ft | 482 kts | 318° |
| 2026-05-05 00:29 | 11.84257 | -85.90536 | 28847 ft | 481 kts | 318° |
| 2026-05-05 00:30 | 11.86764 | -85.92799 | 29188 ft | 481 kts | 318° |
| 2026-05-05 00:30 | 11.89274 | -85.95064 | 29588 ft | 480 kts | 318° |
| 2026-05-05 00:30 | 11.91774 | -85.97321 | 30078 ft | 476 kts | 318° |
| 2026-05-05 00:30 | 11.94239 | -85.99548 | 30370 ft | 478 kts | 318° |
| 2026-05-05 00:31 | 11.96746 | -86.01813 | 30704 ft | 477 kts | 318° |
| 2026-05-05 00:31 | 11.99245 | -86.04070 | 31008 ft | 478 kts | 318° |
| 2026-05-05 00:31 | 12.01727 | -86.06313 | 31348 ft | 477 kts | 318° |
| 2026-05-05 00:31 | 12.04195 | -86.08546 | 31676 ft | 477 kts | 318° |
| 2026-05-05 00:32 | 12.06693 | -86.10803 | 32017 ft | 476 kts | 317° |
| 2026-05-05 00:32 | 12.09180 | -86.13053 | 32313 ft | 476 kts | 318° |
| 2026-05-05 00:32 | 12.11594 | -86.15321 | 32686 ft | 474 kts | 313° |
| 2026-05-05 00:32 | 12.13692 | -86.17910 | 33057 ft | 472 kts | 303° |
| 2026-05-05 00:33 | 12.15359 | -86.20818 | 33440 ft | 470 kts | 295° |
| 2026-05-05 00:33 | 12.16761 | -86.23797 | 33794 ft | 469 kts | 295° |
| 2026-05-05 00:33 | 12.18172 | -86.26819 | 34194 ft | 467 kts | 295° |
| 2026-05-05 00:33 | 12.19549 | -86.29809 | 34515 ft | 467 kts | 294° |
| 2026-05-05 00:34 | 12.20907 | -86.32776 | 34853 ft | 465 kts | 294° |
| 2026-05-05 00:34 | 12.22275 | -86.35783 | 35143 ft | 465 kts | 294° |
| 2026-05-05 00:34 | 12.23626 | -86.38761 | 35391 ft | 464 kts | 294° |
| 2026-05-05 00:34 | 12.24991 | -86.41775 | 35609 ft | 465 kts | 294° |
| 2026-05-05 00:35 | 12.26328 | -86.44735 | 35857 ft | 463 kts | 294° |
| 2026-05-05 00:35 | 12.29026 | -86.50711 | 35881 ft | 463 kts | 294° |
| 2026-05-05 00:36 | 12.31724 | -86.56697 | 35860 ft | 462 kts | 294° |
| 2026-05-05 00:36 | 12.34412 | -86.62665 | 35857 ft | 462 kts | 294° |
| 2026-05-05 00:37 | 12.37096 | -86.68629 | 35847 ft | 463 kts | 294° |
| 2026-05-05 00:37 | 12.39785 | -86.74606 | 35858 ft | 461 kts | 294° |
| 2026-05-05 00:38 | 12.42457 | -86.80553 | 35845 ft | 461 kts | 294° |
| 2026-05-05 00:38 | 12.45127 | -86.86498 | 35845 ft | 463 kts | 294° |
| 2026-05-05 00:39 | 12.47812 | -86.92478 | 35825 ft | 463 kts | 294° |
| 2026-05-05 00:39 | 12.50485 | -86.98438 | 35814 ft | 462 kts | 294° |
| 2026-05-05 00:40 | 12.53164 | -87.04417 | 35823 ft | 462 kts | 294° |
| 2026-05-05 00:40 | 12.55848 | -87.10408 | 35834 ft | 462 kts | 294° |
| 2026-05-05 00:41 | 12.58510 | -87.16338 | 35837 ft | 462 kts | 294° |
| 2026-05-05 00:41 | 12.61184 | -87.22299 | 35657 ft | 465 kts | 294° |
| 2026-05-05 00:41 | 12.62541 | -87.25328 | 35037 ft | 471 kts | 294° |
| 2026-05-05 00:42 | 12.63907 | -87.28376 | 34453 ft | 470 kts | 295° |
| 2026-05-05 00:42 | 12.65267 | -87.31411 | 33845 ft | 466 kts | 295° |
| 2026-05-05 00:42 | 12.66617 | -87.34426 | 33004 ft | 467 kts | 295° |
| 2026-05-05 00:42 | 12.67967 | -87.37442 | 32211 ft | 467 kts | 295° |
| 2026-05-05 00:43 | 12.69325 | -87.40473 | 31449 ft | 468 kts | 295° |
| 2026-05-05 00:43 | 12.70670 | -87.43478 | 30709 ft | 471 kts | 295° |
| 2026-05-05 00:43 | 12.72033 | -87.46526 | 29951 ft | 474 kts | 295° |
| 2026-05-05 00:43 | 12.73405 | -87.49596 | 29196 ft | 478 kts | 295° |
| 2026-05-05 00:44 | 12.74792 | -87.52698 | 28445 ft | 481 kts | 295° |
| 2026-05-05 00:44 | 12.76182 | -87.55810 | 27703 ft | 480 kts | 295° |
| 2026-05-05 00:44 | 12.77554 | -87.58884 | 26966 ft | 476 kts | 295° |
| 2026-05-05 00:44 | 12.78935 | -87.61978 | 26218 ft | 474 kts | 295° |
| 2026-05-05 00:45 | 12.80288 | -87.65010 | 25491 ft | 474 kts | 295° |
| 2026-05-05 00:45 | 12.81670 | -87.68109 | 24742 ft | 473 kts | 295° |
| 2026-05-05 00:45 | 12.83027 | -87.71154 | 24010 ft | 472 kts | 295° |
| 2026-05-05 00:45 | 12.84379 | -87.74187 | 23666 ft | 461 kts | 296° |
| 2026-05-05 00:46 | 12.85683 | -87.77116 | 23443 ft | 446 kts | 296° |
| 2026-05-05 00:46 | 12.86953 | -87.79971 | 22407 ft | 444 kts | 296° |
| 2026-05-05 00:46 | 12.88224 | -87.82831 | 21689 ft | 435 kts | 296° |
| 2026-05-05 00:46 | 12.89460 | -87.85628 | 21266 ft | 428 kts | 296° |
| 2026-05-05 00:47 | 12.90682 | -87.88388 | 20828 ft | 436 kts | 296° |
| 2026-05-05 00:47 | 12.91941 | -87.91232 | 20362 ft | 440 kts | 296° |
| 2026-05-05 00:47 | 12.93207 | -87.94098 | 19888 ft | 437 kts | 296° |
| 2026-05-05 00:47 | 12.94451 | -87.96913 | 19427 ft | 432 kts | 297° |
| 2026-05-05 00:48 | 12.95679 | -87.99696 | 18947 ft | 427 kts | 297° |
| 2026-05-05 00:48 | 12.96891 | -88.02439 | 18479 ft | 426 kts | 297° |
| 2026-05-05 00:48 | 12.98113 | -88.05207 | 18005 ft | 426 kts | 297° |
| 2026-05-05 00:48 | 12.99334 | -88.07973 | 17533 ft | 426 kts | 297° |
| 2026-05-05 00:49 | 13.00549 | -88.10725 | 17095 ft | 424 kts | 297° |
| 2026-05-05 00:49 | 13.01758 | -88.13467 | 16680 ft | 421 kts | 297° |
| 2026-05-05 00:49 | 13.02963 | -88.16197 | 16231 ft | 418 kts | 297° |
| 2026-05-05 00:49 | 13.04139 | -88.18868 | 15784 ft | 414 kts | 297° |
| 2026-05-05 00:50 | 13.05322 | -88.21549 | 15327 ft | 410 kts | 297° |
| 2026-05-05 00:50 | 13.06484 | -88.24189 | 14868 ft | 407 kts | 297° |
| 2026-05-05 00:50 | 13.07641 | -88.26817 | 14434 ft | 397 kts | 296° |
| 2026-05-05 00:50 | 13.08786 | -88.29419 | 13934 ft | 405 kts | 296° |
| 2026-05-05 00:51 | 13.09935 | -88.32027 | 13560 ft | 400 kts | 296° |
| 2026-05-05 00:51 | 13.11073 | -88.34618 | 13140 ft | 396 kts | 296° |
| 2026-05-05 00:51 | 13.12206 | -88.37193 | 12694 ft | 393 kts | 296° |
| 2026-05-05 00:51 | 13.13309 | -88.39705 | 12256 ft | 391 kts | 296° |
| 2026-05-05 00:52 | 13.14428 | -88.42252 | 11808 ft | 389 kts | 297° |
| 2026-05-05 00:52 | 13.15527 | -88.44754 | 11373 ft | 385 kts | 297° |
| 2026-05-05 00:52 | 13.16624 | -88.47253 | 10961 ft | 384 kts | 297° |
| 2026-05-05 00:52 | 13.17726 | -88.49760 | 10547 ft | 380 kts | 297° |
| 2026-05-05 00:53 | 13.18791 | -88.52187 | 10240 ft | 373 kts | 297° |
| 2026-05-05 00:53 | 13.19828 | -88.54558 | 9958 ft | 355 kts | 297° |
| 2026-05-05 00:53 | 13.20812 | -88.56804 | 9589 ft | 340 kts | 298° |
| 2026-05-05 00:53 | 13.21760 | -88.58968 | 9302 ft | 324 kts | 298° |
| 2026-05-05 00:54 | 13.22662 | -88.61025 | 9153 ft | 309 kts | 298° |
| 2026-05-05 00:54 | 13.23532 | -88.63010 | 9036 ft | 299 kts | 298° |
| 2026-05-05 00:54 | 13.24380 | -88.64941 | 8860 ft | 294 kts | 298° |
| 2026-05-05 00:54 | 13.25218 | -88.66851 | 8683 ft | 292 kts | 298° |
| 2026-05-05 00:55 | 13.26048 | -88.68743 | 8518 ft | 292 kts | 298° |
| 2026-05-05 00:55 | 13.26890 | -88.70664 | 8197 ft | 296 kts | 297° |
| 2026-05-05 00:55 | 13.27731 | -88.72581 | 7849 ft | 297 kts | 297° |
| 2026-05-05 00:55 | 13.28575 | -88.74509 | 7478 ft | 298 kts | 297° |
| 2026-05-05 00:56 | 13.29425 | -88.76451 | 7210 ft | 294 kts | 297° |
| 2026-05-05 00:56 | 13.30240 | -88.78320 | 7108 ft | 279 kts | 297° |
| 2026-05-05 00:56 | 13.31011 | -88.80087 | 6937 ft | 267 kts | 297° |
| 2026-05-05 00:56 | 13.31755 | -88.81789 | 6918 ft | 253 kts | 297° |
| 2026-05-05 00:57 | 13.32487 | -88.83411 | 6682 ft | 250 kts | 305° |
| 2026-05-05 00:57 | 13.33665 | -88.84621 | 6557 ft | 231 kts | 339° |
| 2026-05-05 00:57 | 13.35140 | -88.84986 | 6510 ft | 213 kts | 359° |
| 2026-05-05 00:57 | 13.36568 | -88.85199 | 6489 ft | 199 kts | 351° |
| 2026-05-05 00:58 | 13.37900 | -88.85551 | 6188 ft | 198 kts | 347° |
| 2026-05-05 00:58 | 13.39229 | -88.85981 | 5692 ft | 201 kts | 345° |
| 2026-05-05 00:58 | 13.40507 | -88.86456 | 5378 ft | 189 kts | 343° |
| 2026-05-05 00:58 | 13.41731 | -88.86938 | 4872 ft | 191 kts | 341° |
| 2026-05-05 00:59 | 13.42932 | -88.87434 | 4563 ft | 179 kts | 340° |
| 2026-05-05 00:59 | 13.44065 | -88.87915 | 4159 ft | 175 kts | 339° |
| 2026-05-05 00:59 | 13.45172 | -88.88391 | 3792 ft | 169 kts | 339° |
| 2026-05-05 00:59 | 13.46239 | -88.88855 | 3372 ft | 168 kts | 338° |
| 2026-05-05 01:00 | 13.47312 | -88.89325 | 2991 ft | 163 kts | 337° |
| 2026-05-05 01:00 | 13.48312 | -88.89777 | 2984 ft | 157 kts | 331° |
| 2026-05-05 01:00 | 13.49084 | -88.90623 | 3070 ft | 170 kts | 294° |
| 2026-05-05 01:00 | 13.49249 | -88.91805 | 3019 ft | 170 kts | 251° |
| 2026-05-05 01:01 | 13.48791 | -88.92862 | 3108 ft | 156 kts | 243° |
| 2026-05-05 01:01 | 13.48336 | -88.93944 | 3058 ft | 169 kts | 246° |
| 2026-05-05 01:01 | 13.47916 | -88.95037 | 2958 ft | 164 kts | 248° |
| 2026-05-05 01:01 | 13.47494 | -88.96161 | 2554 ft | 171 kts | 247° |
| 2026-05-05 01:02 | 13.47102 | -88.97298 | 2000 ft | 172 kts | 249° |
| 2026-05-05 01:02 | 13.46688 | -88.98437 | 1383 ft | 173 kts | 246° |
| 2026-05-05 01:02 | 13.46263 | -88.99562 | 958 ft | 161 kts | 248° |
| 2026-05-05 01:02 | 13.45894 | -89.00583 | 770 ft | 148 kts | 248° |
| 2026-05-05 01:03 | 13.45533 | -89.01578 | 634 ft | 151 kts | 249° |
| 2026-05-05 01:03 | 13.45163 | -89.02608 | 459 ft | 154 kts | 249° |
| 2026-05-05 01:03 | 13.44798 | -89.03627 | 267 ft | 151 kts | 249° |
| 2026-05-05 01:03 | 13.44434 | -89.04638 | 122 ft | 145 kts | 249° |
| 2026-05-05 01:04 | 13.44158 | -89.05317 | 111 ft | 76 kts | 245° |
| 2026-05-05 01:04 | 13.43998 | -89.05845 | 108 ft | 18 kts | 249° |
| 2026-05-05 01:04 | 13.43952 | -89.05965 | 107 ft | 17 kts | 250° |
| 2026-05-05 01:05 | 13.43910 | -89.06084 | 106 ft | 17 kts | 250° |
| 2026-05-05 01:05 | 13.43867 | -89.06203 | 103 ft | 18 kts | 250° |
| 2026-05-05 01:05 | 13.43830 | -89.06312 | 102 ft | 8 kts | 259° |
| 2026-05-05 01:05 | 13.43846 | -89.06357 | 103 ft | 5 kts | 314° |
| 2026-05-05 01:06 | 13.43872 | -89.06374 | 104 ft | 3 kts | 333° |
| 2026-05-05 01:06 | 13.43892 | -89.06384 | 104 ft | 2 kts | 333° |
| 2026-05-05 01:06 | 13.43918 | -89.06395 | 105 ft | 5 kts | 339° |
| 2026-05-05 01:06 | 13.43946 | -89.06406 | 106 ft | 3 kts | 339° |
| 2026-05-05 01:07 | 13.43966 | -89.06413 | 107 ft | 2 kts | 339° |
| 2026-05-05 01:07 | 13.43983 | -89.06419 | 108 ft | 4 kts | 340° |
| 2026-05-05 01:07 | 13.44038 | -89.06432 | 109 ft | 9 kts | 10° |
| 2026-05-05 01:07 | 13.44079 | -89.06390 | 110 ft | 7 kts | 62° |
| 2026-05-05 01:08 | 13.44099 | -89.06336 | 112 ft | 8 kts | 70° |
| 2026-05-05 01:08 | 13.44120 | -89.06291 | 113 ft | 4 kts | 40° |
| 2026-05-05 01:08 | 13.44147 | -89.06287 | 114 ft | 4 kts | 349° |
| 2026-05-05 01:08 | 13.44175 | -89.06295 | 115 ft | 3 kts | 340° |
| 2026-05-05 01:09 | 13.44193 | -89.06302 | 116 ft | 2 kts | 341° |
| 2026-05-05 01:09 | 13.44198 | -89.06303 | 116 ft | 0 kts | 341° |